Time;durP1;ratioP1;P1;durP2;ratioP2;P2;SDS_P1;SDS_P2;PMS_P1;PMS_P2;Temp;Humidity;BMP_temperature;BMP_pressure;BME280_temperature;BME280_humidity;BME280_pressure;Samples;Min_cycle;Max_cycle;Signal;HPM_P1;HPM_P2
2022/10/08 00:00:48;;;;;;;;;;;;;;;20.81;50.13;101361.50;5127899;28;20068;-38
2022/10/08 00:03:14;;;;;;;;;;;;;;;20.80;50.04;101359.84;5110917;28;20402;-37
2022/10/08 00:05:40;;;;;;;;;;;;;;;20.80;50.10;101355.13;5113899;27;20025;-38
2022/10/08 00:08:06;;;;;;;;;;;;;;;20.81;50.08;101355.97;5130449;27;20382;-37
2022/10/08 00:10:31;;;;;;;;;;;;;;;20.80;50.12;101357.91;5128323;27;19975;-37
2022/10/08 00:12:58;;;;;;;;;;;;;;;20.80;50.01;101357.91;5129067;27;19927;-38
2022/10/08 00:15:23;;;;;;;;;;;;;;;20.82;50.03;101356.81;5127008;27;20108;-38
2022/10/08 00:17:49;;;;;;;;;;;;;;;20.81;49.99;101355.97;5126690;27;20264;-38
2022/10/08 00:20:14;;;;;;;;;;;;;;;20.80;50.02;101343.25;5127533;27;19931;-37
2022/10/08 00:22:40;;;;;;;;;;;;;;;20.80;50.01;101352.38;5130627;27;19923;-38
2022/10/08 00:25:05;;;;;;;;;;;;;;;20.81;49.98;101347.66;5129592;28;19924;-38
2022/10/08 00:27:32;;;;;;;;;;;;;;;20.81;50.01;101358.72;5130628;27;19934;-38
2022/10/08 00:29:57;;;;;;;;;;;;;;;20.81;49.95;101350.44;5129042;28;20221;-37
2022/10/08 00:32:23;;;;;;;;;;;;;;;20.81;50.03;101353.19;5128625;27;19923;-38
2022/10/08 00:34:49;;;;;;;;;;;;;;;20.80;50.08;101338.53;5130242;27;20367;-37
2022/10/08 00:37:14;;;;;;;;;;;;;;;20.80;49.99;101338.53;5131546;27;19930;-38
2022/10/08 00:39:40;;;;;;;;;;;;;;;20.80;50.10;101338.53;5127607;27;19927;-37
2022/10/08 00:42:05;;;;;;;;;;;;;;;20.80;50.02;101330.22;5130239;27;19946;-37
2022/10/08 00:47:23;;;;;;;;;;;;;;;20.80;50.10;101333.00;5173127;27;19925;-35
2022/10/08 00:49:50;;;;;;;;;;;;;;;20.80;49.96;101335.75;5147136;27;20443;-35
2022/10/08 00:52:16;;;;;;;;;;;;;;;20.80;49.96;101337.72;5162479;27;20021;-35
2022/10/08 00:54:41;;;;;;;;;;;;;;;20.80;49.94;101329.41;5159217;27;19938;-35
2022/10/08 00:57:07;;;;;;;;;;;;;;;20.81;49.95;101331.06;5145051;27;20010;-35
2022/10/08 00:59:33;;;;;;;;;;;;;;;20.80;50.00;101333.00;5140671;27;19950;-35
2022/10/08 01:01:59;;;;;;;;;;;;;;;20.81;49.94;101336.59;5146001;27;19976;-35
2022/10/08 01:04:25;;;;;;;;;;;;;;;20.80;50.12;101333.00;5142564;27;20294;-35
2022/10/08 01:06:52;;;;;;;;;;;;;;;20.80;49.94;101324.69;5142061;27;19924;-37
2022/10/08 01:09:38;;;;;;;;;;;;;;;20.81;49.94;101328.28;5142653;27;19959;-38
2022/10/08 01:12:05;;;;;;;;;;;;;;;20.81;50.08;101325.50;5128272;27;20434;-38
2022/10/08 01:14:34;;;;;;;;;;;;;;;20.80;50.03;101315.56;5122154;27;20366;-37
2022/10/08 01:17:05;;;;;;;;;;;;;;;20.82;50.08;101320.84;5141791;27;20014;-37
2022/10/08 01:19:37;;;;;;;;;;;;;;;20.81;50.11;101319.97;5141611;27;20014;-38
2022/10/08 01:22:23;;;;;;;;;;;;;;;20.80;49.98;101319.16;5141521;27;19970;-37
2022/10/08 01:27:40;;;;;;;;;;;;;;;20.81;50.00;101325.50;5126841;27;20065;-38
2022/10/08 01:30:06;;;;;;;;;;;;;;;20.81;49.99;101325.50;5146104;27;19963;-38
2022/10/08 01:32:36;;;;;;;;;;;;;;;20.81;50.00;101317.22;5122955;27;20075;-38
2022/10/08 01:35:03;;;;;;;;;;;;;;;20.82;49.89;101321.66;5145871;27;19974;-38
2022/10/08 01:37:30;;;;;;;;;;;;;;;20.80;49.78;101326.63;5144326;27;19954;-38
2022/10/08 01:39:57;;;;;;;;;;;;;;;20.81;49.94;101328.28;5127935;27;20453;-37
2022/10/08 01:42:23;;;;;;;;;;;;;;;20.81;50.09;101325.50;5125954;27;20030;-38
2022/10/08 01:44:49;;;;;;;;;;;;;;;20.80;50.05;101321.91;5141002;27;20050;-38
2022/10/08 01:47:16;;;;;;;;;;;;;;;20.80;49.98;101319.16;5125377;27;19979;-38
2022/10/08 01:49:43;;;;;;;;;;;;;;;20.82;49.99;101324.44;5145377;27;20072;-38
2022/10/08 01:52:11;;;;;;;;;;;;;;;20.79;50.05;101323.03;5145747;27;19977;-38
2022/10/08 01:54:37;;;;;;;;;;;;;;;20.81;49.93;101322.75;5126161;27;20490;-38
2022/10/08 01:57:04;;;;;;;;;;;;;;;20.81;49.85;101319.97;5138719;27;20213;-38
2022/10/08 01:59:33;;;;;;;;;;;;;;;20.80;50.01;101319.16;5127394;28;19996;-37
2022/10/08 02:02:01;;;;;;;;;;;;;;;20.81;50.11;101308.91;5129189;28;20094;-37
2022/10/08 02:04:42;;;;;;;;;;;;;;;20.81;50.10;101317.22;5128866;28;20383;-38
2022/10/08 02:07:10;;;;;;;;;;;;;;;20.81;49.94;101308.91;5113138;28;20403;-37
2022/10/08 02:09:37;;;;;;;;;;;;;;;20.81;49.95;101317.22;5105253;28;20022;-38
2022/10/08 02:12:03;;;;;;;;;;;;;;;20.80;50.11;101313.63;5126069;28;20019;-38
2022/10/08 02:14:29;;;;;;;;;;;;;;;20.80;50.05;101313.63;5112378;28;20312;-38
2022/10/08 02:16:58;;;;;;;;;;;;;;;20.80;50.03;101310.03;5129885;28;19928;-36
2022/10/08 02:19:31;;;;;;;;;;;;;;;20.80;50.00;101310.84;5110812;28;20014;-36
2022/10/08 02:21:57;;;;;;;;;;;;;;;20.80;49.99;101310.84;5129999;28;19973;-37
2022/10/08 02:24:32;;;;;;;;;;;;;;;20.80;49.97;101304.50;5128917;28;19924;-37
2022/10/08 02:26:58;;;;;;;;;;;;;;;20.81;50.02;101306.13;5131210;28;20014;-39
2022/10/08 02:29:27;;;;;;;;;;;;;;;20.82;50.02;101298.69;5128537;28;19930;-37
2022/10/08 02:31:55;;;;;;;;;;;;;;;20.81;50.06;101303.38;5131362;28;20391;-37
2022/10/08 02:34:23;;;;;;;;;;;;;;;20.80;50.20;101308.09;5129506;28;19931;-36
2022/10/08 02:36:51;;;;;;;;;;;;;;;20.81;50.03;101306.13;5111510;28;20023;-36
2022/10/08 02:39:16;;;;;;;;;;;;;;;20.80;49.94;101305.31;5130386;27;20065;-37
2022/10/08 02:41:43;;;;;;;;;;;;;;;20.81;50.03;101297.84;5131259;28;19923;-38
2022/10/08 02:44:11;;;;;;;;;;;;;;;20.81;50.02;101300.59;5130561;27;19981;-37
2022/10/08 02:46:38;;;;;;;;;;;;;;;20.80;50.03;101298.94;5128438;28;20011;-38
2022/10/08 02:49:22;;;;;;;;;;;;;;;20.80;49.98;101299.78;5125956;28;19963;-37
2022/10/08 02:51:48;;;;;;;;;;;;;;;20.79;49.96;101300.91;5130797;28;20018;-37
2022/10/08 02:54:14;;;;;;;;;;;;;;;20.80;49.93;101302.53;5110723;28;19932;-38
2022/10/08 02:56:41;;;;;;;;;;;;;;;20.80;50.18;101302.53;5110047;28;20391;-37
2022/10/08 02:59:09;;;;;;;;;;;;;;;20.81;49.89;101306.13;5109739;28;20373;-37
2022/10/08 03:01:39;;;;;;;;;;;;;;;20.82;50.10;101301.47;5128286;28;20018;-38
2022/10/08 03:04:07;;;;;;;;;;;;;;;20.80;49.94;101308.09;5129071;28;20407;-38
2022/10/08 03:06:33;;;;;;;;;;;;;;;20.81;50.12;101306.13;5125946;28;20458;-37
2022/10/08 03:08:58;;;;;;;;;;;;;;;20.80;49.94;101304.50;5129592;27;19924;-38
2022/10/08 03:11:24;;;;;;;;;;;;;;;20.80;50.05;101308.09;5112196;28;19923;-37
2022/10/08 03:13:49;;;;;;;;;;;;;;;20.81;50.01;101317.22;5106064;28;19931;-37
2022/10/08 03:16:17;;;;;;;;;;;;;;;20.82;50.04;101321.66;5110468;28;19950;-38
2022/10/08 03:18:42;;;;;;;;;;;;;;;20.80;50.04;101327.47;5109056;28;19949;-37
2022/10/08 03:21:08;;;;;;;;;;;;;;;20.80;50.00;101321.91;5129440;28;19931;-38
2022/10/08 03:23:34;;;;;;;;;;;;;;;20.81;50.00;101322.75;5111406;28;19931;-38
2022/10/08 03:25:59;;;;;;;;;;;;;;;20.80;50.01;101330.22;5127491;28;20112;-38
2022/10/08 03:28:25;;;;;;;;;;;;;;;20.79;50.08;101328.56;5129619;28;20387;-38
2022/10/08 03:30:51;;;;;;;;;;;;;;;20.82;49.98;101329.97;5124311;28;19932;-38
2022/10/08 03:33:16;;;;;;;;;;;;;;;20.80;50.01;101333.00;5128062;28;19965;-38
2022/10/08 03:35:45;;;;;;;;;;;;;;;20.80;49.99;101324.69;5127899;28;19947;-38
2022/10/08 03:38:11;;;;;;;;;;;;;;;20.80;49.95;101337.72;5108492;28;20433;-38
2022/10/08 03:40:36;;;;;;;;;;;;;;;20.80;49.93;101334.94;5130511;28;19931;-38
2022/10/08 03:43:02;;;;;;;;;;;;;;;20.80;49.93;101346.00;5128964;28;19932;-38
2022/10/08 03:45:27;;;;;;;;;;;;;;;20.82;50.01;101351.28;5125763;28;19943;-38
2022/10/08 03:47:53;;;;;;;;;;;;;;;20.81;50.02;101344.88;5125405;28;20298;-38
2022/10/08 03:50:19;;;;;;;;;;;;;;;20.80;50.14;101348.78;5130398;28;19934;-38
2022/10/08 03:52:45;;;;;;;;;;;;;;;20.80;49.97;101346.00;5107582;28;20010;-38
2022/10/08 03:55:11;;;;;;;;;;;;;;;20.80;49.99;101346.84;5127428;28;19929;-38
2022/10/08 03:57:36;;;;;;;;;;;;;;;20.80;49.98;101352.38;5128326;28;19939;-38
2022/10/08 04:00:02;;;;;;;;;;;;;;;20.82;49.89;101348.50;5130237;28;19923;-38
2022/10/08 04:02:28;;;;;;;;;;;;;;;20.80;49.90;101352.38;5128725;28;19946;-38
2022/10/08 04:04:53;;;;;;;;;;;;;;;20.80;49.96;101346.84;5130132;28;19930;-37
2022/10/08 04:07:19;;;;;;;;;;;;;;;20.80;50.09;101357.91;5128537;28;19931;-37
2022/10/08 04:09:44;;;;;;;;;;;;;;;20.80;49.99;101351.53;5128856;28;19942;-37
2022/10/08 04:12:10;;;;;;;;;;;;;;;20.81;49.86;101353.19;5129159;28;20252;-38
2022/10/08 04:14:35;;;;;;;;;;;;;;;20.81;49.90;101355.97;5126874;28;19923;-38
2022/10/08 04:17:01;;;;;;;;;;;;;;;20.81;49.90;101358.72;5126912;28;19927;-38
2022/10/08 04:19:27;;;;;;;;;;;;;;;20.81;49.94;101361.50;5118895;27;19924;-38
2022/10/08 04:21:52;;;;;;;;;;;;;;;20.80;50.08;101357.91;5129142;27;19931;-38
2022/10/08 04:24:18;;;;;;;;;;;;;;;20.81;50.10;101369.81;5130106;28;20110;-38
2022/10/08 04:26:43;;;;;;;;;;;;;;;20.82;50.08;101359.59;5127640;28;19931;-38
2022/10/08 04:29:11;;;;;;;;;;;;;;;20.80;50.03;101359.84;5128728;27;19942;-38
2022/10/08 04:31:37;;;;;;;;;;;;;;;20.81;49.98;101353.19;5123307;28;20387;-38
2022/10/08 04:34:02;;;;;;;;;;;;;;;20.80;49.90;101357.91;5127718;28;19930;-38
2022/10/08 04:36:28;;;;;;;;;;;;;;;20.81;49.98;101361.50;5127618;28;19924;-37
2022/10/08 04:38:53;;;;;;;;;;;;;;;20.82;50.11;101368.72;5125222;28;19924;-38
2022/10/08 04:41:21;;;;;;;;;;;;;;;20.80;49.91;101371.75;5126945;28;19930;-38
2022/10/08 04:43:46;;;;;;;;;;;;;;;20.82;50.10;101373.44;5126847;28;20022;-38
2022/10/08 04:46:13;;;;;;;;;;;;;;;20.82;50.07;101367.91;5125063;28;19996;-38
2022/10/08 04:48:38;;;;;;;;;;;;;;;20.82;49.92;101370.66;5108454;28;19924;-38
2022/10/08 04:51:04;;;;;;;;;;;;;;;20.81;49.95;101364.25;5105695;28;20358;-37
2022/10/08 04:53:35;;;;;;;;;;;;;;;20.80;49.93;101371.75;5109008;28;20021;-38
2022/10/08 04:56:09;;;;;;;;;;;;;;;20.80;49.87;101368.97;5126946;27;19932;-37
2022/10/08 04:58:35;;;;;;;;;;;;;;;20.80;50.00;101373.69;5125325;28;19966;-38
2022/10/08 05:01:03;;;;;;;;;;;;;;;20.81;49.78;101375.34;5124999;28;20320;-38
2022/10/08 05:03:28;;;;;;;;;;;;;;;20.80;49.91;101377.28;5105509;28;19968;-38
2022/10/08 05:05:54;;;;;;;;;;;;;;;20.80;49.96;101382.81;5127447;28;19924;-37
2022/10/08 05:08:19;;;;;;;;;;;;;;;20.82;50.07;101376.19;5126866;28;19928;-38
2022/10/08 05:10:46;;;;;;;;;;;;;;;20.80;49.93;101368.16;5124436;28;19931;-38
2022/10/08 05:13:12;;;;;;;;;;;;;;;20.80;50.03;101379.22;5124752;28;20355;-38
2022/10/08 05:15:37;;;;;;;;;;;;;;;20.80;50.07;101377.28;5123479;27;20420;-38
2022/10/08 05:18:03;;;;;;;;;;;;;;;20.79;49.97;101381.16;5129113;27;19930;-38
2022/10/08 05:20:28;;;;;;;;;;;;;;;20.81;50.01;101389.19;5128108;28;19927;-38
2022/10/08 05:22:54;;;;;;;;;;;;;;;20.82;49.86;101390.03;5128143;28;19923;-38
2022/10/08 05:25:20;;;;;;;;;;;;;;;20.81;50.02;101397.47;5121542;28;19924;-38
2022/10/08 05:27:45;;;;;;;;;;;;;;;20.80;50.04;101388.34;5127770;28;19954;-38
2022/10/08 05:30:11;;;;;;;;;;;;;;;20.80;49.83;101393.88;5127224;28;20044;-38
2022/10/08 05:32:36;;;;;;;;;;;;;;;20.82;50.08;101406.66;5127945;27;19979;-38
2022/10/08 05:35:02;;;;;;;;;;;;;;;20.81;50.00;101405.78;5132299;28;19975;-38
2022/10/08 05:37:27;;;;;;;;;;;;;;;20.80;50.00;101413.28;5129326;27;20295;-37
2022/10/08 05:39:53;;;;;;;;;;;;;;;20.80;50.12;101417.97;5129255;28;19930;-37
2022/10/08 05:42:18;;;;;;;;;;;;;;;20.81;49.93;101416.84;5130083;28;19942;-38
2022/10/08 05:44:44;;;;;;;;;;;;;;;20.80;50.01;101418.81;5129718;28;19923;-38
2022/10/08 05:47:10;;;;;;;;;;;;;;;20.81;49.92;101419.63;5125627;28;20344;-38
2022/10/08 05:49:36;;;;;;;;;;;;;;;20.81;49.98;101430.69;5124385;28;19935;-37
2022/10/08 05:52:02;;;;;;;;;;;;;;;20.80;50.05;101429.88;5131960;28;19931;-38
2022/10/08 05:54:27;;;;;;;;;;;;;;;20.80;49.88;101429.06;5132079;28;19931;-37
2022/10/08 05:56:53;;;;;;;;;;;;;;;20.79;50.04;101428.22;5130045;28;19931;-38
2022/10/08 05:59:20;;;;;;;;;;;;;;;20.80;49.91;101440.94;5128811;28;20363;-38
2022/10/08 06:01:45;;;;;;;;;;;;;;;20.80;49.86;101431.81;5110876;28;20018;-37
2022/10/08 06:04:11;;;;;;;;;;;;;;;20.80;49.99;101443.72;5127209;28;19943;-37
2022/10/08 06:06:37;;;;;;;;;;;;;;;20.82;50.13;101448.16;5128986;28;20461;-38
2022/10/08 06:09:03;;;;;;;;;;;;;;;20.80;49.89;101448.44;5109609;28;19959;-38
2022/10/08 06:11:29;;;;;;;;;;;;;;;20.80;49.90;101452.03;5113173;28;20397;-37
2022/10/08 06:13:55;;;;;;;;;;;;;;;20.80;49.87;101456.72;5128093;28;20367;-38
2022/10/08 06:16:21;;;;;;;;;;;;;;;20.81;49.90;101466.69;5107338;27;19967;-38
2022/10/08 06:18:46;;;;;;;;;;;;;;;20.80;49.91;101465.88;5107874;28;19942;-37
2022/10/08 06:21:13;;;;;;;;;;;;;;;20.80;49.78;101467.81;5130708;28;19923;-37
2022/10/08 06:23:39;;;;;;;;;;;;;;;20.81;49.89;101475.00;5113183;28;19966;-38
2022/10/08 06:26:06;;;;;;;;;;;;;;;20.80;50.10;101476.94;5128563;28;20267;-38
2022/10/08 06:28:32;;;;;;;;;;;;;;;20.80;49.99;101487.19;5127518;28;19963;-38
2022/10/08 06:30:58;;;;;;;;;;;;;;;20.80;49.95;101493.53;5111941;28;19933;-38
2022/10/08 06:33:23;;;;;;;;;;;;;;;20.80;49.91;101495.50;5129725;28;20271;-38
2022/10/08 06:35:49;;;;;;;;;;;;;;;20.82;49.84;101500.75;5129796;28;20101;-37
2022/10/08 06:38:14;;;;;;;;;;;;;;;20.80;49.91;101501.03;5129825;28;20005;-38
2022/10/08 06:40:40;;;;;;;;;;;;;;;20.80;49.96;101501.84;5130832;28;19941;-38
2022/10/08 06:43:06;;;;;;;;;;;;;;;20.81;49.96;101505.44;5128956;27;19923;-38
2022/10/08 06:45:33;;;;;;;;;;;;;;;20.80;49.96;101512.09;5106389;28;20064;-38
2022/10/08 06:47:58;;;;;;;;;;;;;;;20.81;50.03;101519.28;5126667;28;19962;-38
2022/10/08 06:50:24;;;;;;;;;;;;;;;20.80;49.83;101520.41;5124983;28;19930;-38
2022/10/08 06:52:49;;;;;;;;;;;;;;;20.81;49.89;101530.34;5128275;27;19980;-38
2022/10/08 06:55:15;;;;;;;;;;;;;;;20.81;49.93;101522.06;5130208;27;20356;-37
2022/10/08 06:57:41;;;;;;;;;;;;;;;20.82;49.97;101536.75;5127074;28;19931;-37
2022/10/08 07:00:06;;;;;;;;;;;;;;;20.81;49.93;101535.91;5130023;28;19923;-37
2022/10/08 07:02:32;;;;;;;;;;;;;;;20.81;49.94;101541.44;5129108;28;19982;-38
2022/10/08 07:04:58;;;;;;;;;;;;;;;20.80;49.82;101542.53;5129070;28;19923;-38
2022/10/08 07:07:23;;;;;;;;;;;;;;;20.80;49.83;101550.84;5125659;28;19932;-38
2022/10/08 07:09:49;;;;;;;;;;;;;;;20.80;49.85;101550.84;5125650;28;19932;-38
2022/10/08 07:12:14;;;;;;;;;;;;;;;20.80;50.09;101564.69;5130206;28;20502;-38
2022/10/08 07:14:40;;;;;;;;;;;;;;;20.80;49.88;101567.47;5126565;28;19924;-38
2022/10/08 07:17:05;;;;;;;;;;;;;;;20.80;49.79;101565.53;5125475;27;19924;-38
2022/10/08 07:19:31;;;;;;;;;;;;;;;20.80;49.96;101570.22;5127910;28;19931;-38
2022/10/08 07:21:56;;;;;;;;;;;;;;;20.82;49.82;101575.50;5126143;28;19931;-38
2022/10/08 07:24:26;;;;;;;;;;;;;;;20.80;49.92;101575.75;5128158;28;19969;-38
2022/10/08 07:26:52;;;;;;;;;;;;;;;20.80;50.07;101582.13;5127584;27;19931;-38
2022/10/08 07:29:17;;;;;;;;;;;;;;;20.80;50.05;101579.34;5129762;28;19931;-38
2022/10/08 07:31:43;;;;;;;;;;;;;;;20.80;50.08;101581.31;5130440;28;19934;-38
2022/10/08 07:34:09;;;;;;;;;;;;;;;20.79;49.84;101588.78;5125096;28;20295;-38
2022/10/08 07:36:35;;;;;;;;;;;;;;;20.80;49.83;101597.91;5124075;28;20152;-38
2022/10/08 07:39:02;;;;;;;;;;;;;;;20.80;49.88;101600.69;5108010;28;20173;-38
2022/10/08 07:41:28;;;;;;;;;;;;;;;20.80;49.80;101608.97;5108130;28;19988;-38
2022/10/08 07:43:57;;;;;;;;;;;;;;;20.79;49.83;101602.63;5108857;28;19965;-38
2022/10/08 07:46:22;;;;;;;;;;;;;;;20.80;49.82;101606.22;5105509;28;19969;-38
2022/10/08 07:48:49;;;;;;;;;;;;;;;20.78;50.02;101603.72;5127137;28;19924;-38
2022/10/08 07:51:16;;;;;;;;;;;;;;;20.80;49.94;101611.75;5126495;28;20419;-38
2022/10/08 07:53:41;;;;;;;;;;;;;;;20.79;49.86;101608.16;5105910;28;19951;-38
2022/10/08 07:56:07;;;;;;;;;;;;;;;20.80;49.83;101617.28;5123488;27;19972;-38
2022/10/08 07:58:33;;;;;;;;;;;;;;;20.80;49.88;101608.97;5110991;28;19993;-38
2022/10/08 08:00:59;;;;;;;;;;;;;;;20.79;49.83;101619.22;5129065;27;20341;-38
2022/10/08 08:03:25;;;;;;;;;;;;;;;20.79;49.77;101616.47;5109863;28;20428;-37
2022/10/08 08:05:50;;;;;;;;;;;;;;;20.80;50.05;101618.13;5125733;28;19937;-38
2022/10/08 08:08:16;;;;;;;;;;;;;;;20.81;49.83;101618.94;5126276;28;20018;-38
2022/10/08 08:10:42;;;;;;;;;;;;;;;20.80;49.75;101626.41;5125344;28;19980;-38
2022/10/08 08:13:07;;;;;;;;;;;;;;;20.81;49.81;101630.00;5129510;28;20449;-38
2022/10/08 08:15:33;;;;;;;;;;;;;;;20.80;49.76;101633.91;5125434;27;19923;-38
2022/10/08 08:17:58;;;;;;;;;;;;;;;20.80;49.96;101631.97;5125427;27;19935;-38
2022/10/08 08:20:24;;;;;;;;;;;;;;;20.81;49.98;101641.09;5128006;28;19976;-38
2022/10/08 08:22:49;;;;;;;;;;;;;;;20.80;49.88;101642.19;5124724;28;19930;-38
2022/10/08 08:25:15;;;;;;;;;;;;;;;20.80;49.77;101650.50;5129333;28;20275;-38
2022/10/08 08:27:41;;;;;;;;;;;;;;;20.80;49.86;101654.09;5128882;28;20555;-37
2022/10/08 08:30:07;;;;;;;;;;;;;;;20.80;49.85;101656.03;5124324;28;19928;-38
2022/10/08 08:32:32;;;;;;;;;;;;;;;20.80;49.80;101658.81;5128887;28;19927;-38
2022/10/08 08:34:58;;;;;;;;;;;;;;;20.79;49.85;101660.75;5128952;28;19924;-38
2022/10/08 08:37:23;;;;;;;;;;;;;;;20.80;49.92;101665.19;5126744;28;19935;-38
2022/10/08 08:39:49;;;;;;;;;;;;;;;20.80;49.93;101667.13;5124885;28;20287;-37
2022/10/08 08:42:26;;;;;;;;;;;;;;;20.79;49.96;101666.28;5127022;28;20014;-38
2022/10/08 08:44:55;;;;;;;;;;;;;;;20.80;49.87;101673.47;5124537;28;19985;-38
2022/10/08 08:47:23;;;;;;;;;;;;;;;20.79;49.92;101671.81;5125545;28;19966;-38
2022/10/08 08:49:51;;;;;;;;;;;;;;;20.80;49.75;101678.19;5109570;28;20364;-37
2022/10/08 08:52:17;;;;;;;;;;;;;;;20.80;49.88;101680.97;5128451;28;19962;-38
2022/10/08 08:54:46;;;;;;;;;;;;;;;20.79;49.91;101682.06;5129565;27;19923;-37
2022/10/08 08:57:31;;;;;;;;;;;;;;;20.80;49.79;101687.31;5106945;28;20072;-38
2022/10/08 08:59:58;;;;;;;;;;;;;;;20.79;49.91;101685.66;5110451;28;19927;-38
2022/10/08 09:02:25;;;;;;;;;;;;;;;20.79;49.95;101685.66;5127778;28;19958;-38
2022/10/08 09:04:53;;;;;;;;;;;;;;;20.78;49.94;101686.78;5129844;28;19958;-37
2022/10/08 09:07:21;;;;;;;;;;;;;;;20.80;49.79;101692.03;5128158;27;20022;-38
2022/10/08 09:09:47;;;;;;;;;;;;;;;20.79;49.82;101699.50;5113226;28;20050;-38
2022/10/08 09:12:16;;;;;;;;;;;;;;;20.80;49.91;101697.56;5132135;28;19995;-38
2022/10/08 09:14:53;;;;;;;;;;;;;;;20.80;49.94;101697.56;5110468;28;20034;-38
2022/10/08 09:17:20;;;;;;;;;;;;;;;20.79;49.97;101702.28;5106552;28;19978;-38
2022/10/08 09:19:46;;;;;;;;;;;;;;;20.80;49.84;101708.63;5114543;28;20023;-38
2022/10/08 09:22:20;;;;;;;;;;;;;;;20.80;49.82;101703.09;5132135;28;19927;-38
2022/10/08 09:24:46;;;;;;;;;;;;;;;20.80;49.92;101712.25;5112376;28;19963;-38
2022/10/08 09:27:13;;;;;;;;;;;;;;;20.79;49.92;101710.59;5132080;28;20276;-38
2022/10/08 09:29:39;;;;;;;;;;;;;;;20.79;49.80;101718.88;5132550;28;20398;-38
2022/10/08 09:32:04;;;;;;;;;;;;;;;20.80;49.93;101716.94;5128106;28;19923;-38
2022/10/08 09:34:30;;;;;;;;;;;;;;;20.78;49.78;101714.47;5129695;28;19923;-37
2022/10/08 09:37:02;;;;;;;;;;;;;;;20.80;49.78;101731.63;5126158;28;19923;-38
2022/10/08 09:39:29;;;;;;;;;;;;;;;20.79;49.85;101732.72;5131209;28;20122;-38
2022/10/08 09:42:16;;;;;;;;;;;;;;;20.79;49.92;101729.97;5110494;28;19967;-38
2022/10/08 09:44:50;;;;;;;;;;;;;;;20.80;49.91;101736.31;5111042;28;20018;-38
2022/10/08 09:47:16;;;;;;;;;;;;;;;20.79;49.82;101742.97;5127646;28;20026;-37
2022/10/08 09:49:42;;;;;;;;;;;;;;;20.80;49.89;101733.56;5110038;28;19962;-38
2022/10/08 09:52:25;;;;;;;;;;;;;;;20.80;49.77;101747.41;5113171;28;19950;-38
2022/10/08 09:54:53;;;;;;;;;;;;;;;20.79;50.08;101745.75;5130644;28;20026;-38
2022/10/08 09:57:19;;;;;;;;;;;;;;;20.79;49.94;101743.81;5128267;28;20352;-38
2022/10/08 09:59:49;;;;;;;;;;;;;;;20.79;49.82;101749.34;5130319;28;20007;-38
2022/10/08 10:02:30;;;;;;;;;;;;;;;20.79;49.89;101749.34;5110566;28;19966;-38
2022/10/08 10:04:55;;;;;;;;;;;;;;;20.79;49.88;101756.81;5106608;28;19954;-38
2022/10/08 10:07:22;;;;;;;;;;;;;;;20.80;49.79;101758.47;5111850;28;19939;-38
2022/10/08 10:09:50;;;;;;;;;;;;;;;20.79;49.91;101754.88;5129025;28;20010;-38
2022/10/08 10:12:21;;;;;;;;;;;;;;;20.80;49.93;101747.41;5112619;28;20067;-38
2022/10/08 10:14:49;;;;;;;;;;;;;;;20.79;49.86;101760.41;5125357;28;20397;-37
2022/10/08 10:19:51;;;;;;;;;;;;;;;20.79;49.86;101757.66;5162737;27;19925;-35
2022/10/08 10:22:19;;;;;;;;;;;;;;;20.79;49.93;101746.56;5161045;27;19981;-35
2022/10/08 10:24:47;;;;;;;;;;;;;;;20.79;49.88;101746.56;5139807;27;19981;-35
2022/10/08 10:27:14;;;;;;;;;;;;;;;20.79;49.85;101757.66;5157425;27;20383;-35
2022/10/08 10:29:45;;;;;;;;;;;;;;;20.79;49.82;101752.09;5163650;27;19974;-35
2022/10/08 10:32:12;;;;;;;;;;;;;;;20.80;49.89;101755.69;5163657;27;19954;-35
2022/10/08 10:34:40;;;;;;;;;;;;;;;20.80;49.92;101755.69;5155940;27;20013;-35
2022/10/08 10:37:24;;;;;;;;;;;;;;;20.80;49.92;101755.69;5155224;27;20535;-35
2022/10/08 10:39:50;;;;;;;;;;;;;;;20.80;49.84;101762.06;5158613;27;19969;-35
2022/10/08 10:42:18;;;;;;;;;;;;;;;20.80;49.83;101766.78;5139674;27;20348;-35
2022/10/08 10:44:47;;;;;;;;;;;;;;;20.80;49.76;101764.00;5139968;27;19962;-38
2022/10/08 10:47:13;;;;;;;;;;;;;;;20.79;49.91;101763.19;5134802;27;20024;-38
2022/10/08 10:49:39;;;;;;;;;;;;;;;20.80;49.77;101761.25;5154446;27;19924;-37
2022/10/08 10:52:09;;;;;;;;;;;;;;;20.79;49.92;101757.66;5158121;27;19971;-38
2022/10/08 10:54:55;;;;;;;;;;;;;;;20.79;49.89;101771.47;5138871;27;20011;-37
2022/10/08 10:57:40;;;;;;;;;;;;;;;20.79;49.87;101773.41;5139716;27;20085;-37
2022/10/08 11:02:45;;;;;;;;;;;;;;;20.79;49.89;101774.25;5176298;27;19929;-35
2022/10/08 11:05:27;;;;;;;;;;;;;;;20.79;49.92;101784.50;5156395;27;19970;-35
2022/10/08 11:08:12;;;;;;;;;;;;;;;20.78;49.98;101778.13;5173379;27;19973;-35
2022/10/08 11:10:42;;;;;;;;;;;;;;;20.79;49.99;101785.31;5154888;27;19959;-35
2022/10/08 11:13:27;;;;;;;;;;;;;;;20.79;49.94;101782.56;5176586;27;19962;-35
2022/10/08 11:16:13;;;;;;;;;;;;;;;20.79;49.96;101790.03;5156110;27;19990;-35
2022/10/08 11:18:43;;;;;;;;;;;;;;;20.79;49.94;101790.03;5166011;27;19956;-35
2022/10/08 11:21:29;;;;;;;;;;;;;;;20.79;49.79;101787.25;5176106;27;19971;-35
2022/10/08 11:24:14;;;;;;;;;;;;;;;20.79;49.86;101781.72;5157589;27;19970;-35
2022/10/08 11:29:33;;;;;;;;;;;;;;;20.79;49.88;101778.97;5160829;27;19926;-35
2022/10/08 11:31:58;;;;;;;;;;;;;;;20.79;49.97;101776.19;5137624;27;20616;-35
2022/10/08 11:34:28;;;;;;;;;;;;;;;20.78;49.87;101786.44;5158400;27;19931;-35
2022/10/08 11:37:13;;;;;;;;;;;;;;;20.80;49.96;101780.63;5133681;27;20023;-35
2022/10/08 11:42:23;;;;;;;;;;;;;;;20.80;49.91;101775.09;5174482;27;19926;-35
2022/10/08 11:44:48;;;;;;;;;;;;;;;20.79;50.02;101778.97;5173212;27;20366;-37
2022/10/08 11:47:34;;;;;;;;;;;;;;;20.80;49.85;101775.09;5168846;27;20383;-37
2022/10/08 11:49:59;;;;;;;;;;;;;;;20.79;49.97;101785.31;5154310;27;19969;-37
2022/10/08 11:52:28;;;;;;;;;;;;;;;20.79;49.94;101778.97;5174560;27;20069;-38
2022/10/08 11:54:54;;;;;;;;;;;;;;;20.79;50.00;101774.25;5144333;27;19978;-37
2022/10/08 11:57:24;;;;;;;;;;;;;;;20.79;49.80;101777.03;5150452;27;19931;-37
2022/10/08 11:59:57;;;;;;;;;;;;;;;20.80;49.96;101775.09;5137440;27;19973;-38
2022/10/08 12:02:27;;;;;;;;;;;;;;;20.79;49.91;101774.25;5136381;27;19966;-38
2022/10/08 12:04:53;;;;;;;;;;;;;;;20.80;49.92;101780.63;5151944;27;19927;-38
2022/10/08 12:07:22;;;;;;;;;;;;;;;20.80;49.95;101769.53;5149996;27;19930;-37
2022/10/08 12:10:07;;;;;;;;;;;;;;;20.79;49.88;101778.97;5133896;27;20362;-38
2022/10/08 12:15:27;;;;;;;;;;;;;;;20.79;49.96;101790.03;5166336;27;20309;-35
2022/10/08 12:17:56;;;;;;;;;;;;;;;20.79;49.84;101788.09;5167115;27;19962;-35
2022/10/08 12:20:22;;;;;;;;;;;;;;;20.79;49.80;101790.03;5148437;27;20021;-37
2022/10/08 12:23:04;;;;;;;;;;;;;;;20.79;49.93;101795.56;5148495;27;19959;-38
2022/10/08 12:25:31;;;;;;;;;;;;;;;20.79;49.93;101795.56;5166000;27;19966;-38
2022/10/08 12:28:17;;;;;;;;;;;;;;;20.79;49.86;101799.16;5148209;27;20402;-38
2022/10/08 12:30:51;;;;;;;;;;;;;;;20.79;49.87;101801.94;5147527;27;19927;-38
2022/10/08 12:33:16;;;;;;;;;;;;;;;20.79;49.94;101806.66;5166493;27;19961;-37
2022/10/08 12:36:02;;;;;;;;;;;;;;;20.78;50.02;101797.50;5146980;27;19926;-38
2022/10/08 12:38:33;;;;;;;;;;;;;;;20.79;50.00;101801.09;5150069;27;19959;-38
2022/10/08 12:41:03;;;;;;;;;;;;;;;20.79;49.84;101801.09;5167158;27;20003;-38
2022/10/08 12:43:39;;;;;;;;;;;;;;;20.79;49.88;101801.09;5167131;27;20337;-38
2022/10/08 12:46:25;;;;;;;;;;;;;;;20.78;50.00;101797.50;5145980;27;20168;-39
2022/10/08 12:48:57;;;;;;;;;;;;;;;20.80;49.80;101798.06;5148881;27;19959;-37
2022/10/08 12:51:27;;;;;;;;;;;;;;;20.80;49.97;101805.53;5167235;27;20029;-37
2022/10/08 12:53:52;;;;;;;;;;;;;;;20.80;49.98;101806.38;5165338;27;20381;-37
2022/10/08 12:56:21;;;;;;;;;;;;;;;20.78;49.87;101805.81;5157646;27;20425;-38
2022/10/08 12:58:46;;;;;;;;;;;;;;;20.79;49.92;101804.69;5157624;27;20014;-38